sensor_id;sensor_type;location;lat;lon;timestamp;pressure;altitude;pressure_sealevel;temperature;humidity
32733;BME280;11867;51.198;11.966;2022-09-28T00:03:17;98682.91;;;8.43;98.18
32733;BME280;11867;51.198;11.966;2022-09-28T00:08:20;98688.75;;;8.95;96.30
32733;BME280;11867;51.198;11.966;2022-09-28T00:13:23;98684.78;;;8.79;94.72
32733;BME280;11867;51.198;11.966;2022-09-28T00:18:27;98680.44;;;8.55;96.44
32733;BME280;11867;51.198;11.966;2022-09-28T00:23:29;98683.38;;;9.13;93.97
32733;BME280;11867;51.198;11.966;2022-09-28T00:28:32;98677.19;;;9.61;90.86
32733;BME280;11867;51.198;11.966;2022-09-28T00:33:35;98685.56;;;9.73;90.93
32733;BME280;11867;51.198;11.966;2022-09-28T00:38:38;98675.22;;;9.44;92.29
32733;BME280;11867;51.198;11.966;2022-09-28T00:43:40;98667.78;;;9.67;91.41
32733;BME280;11867;51.198;11.966;2022-09-28T00:48:49;98671.53;;;9.88;90.08
32733;BME280;11867;51.198;11.966;2022-09-28T00:53:54;98663.38;;;9.48;91.85
32733;BME280;11867;51.198;11.966;2022-09-28T00:58:58;98657.66;;;9.59;92.69
32733;BME280;11867;51.198;11.966;2022-09-28T01:04:02;98650.53;;;7.82;100.00
32733;BME280;11867;51.198;11.966;2022-09-28T01:09:07;98647.38;;;8.17;100.00
32733;BME280;11867;51.198;11.966;2022-09-28T01:14:13;98632.44;;;7.92;100.00
32733;BME280;11867;51.198;11.966;2022-09-28T01:19:31;98635.50;;;8.72;98.18
32733;BME280;11867;51.198;11.966;2022-09-28T01:24:41;98623.56;;;9.13;94.61
32733;BME280;11867;51.198;11.966;2022-09-28T01:29:51;98610.63;;;9.09;93.58
32733;BME280;11867;51.198;11.966;2022-09-28T01:34:59;98609.69;;;9.14;93.34
32733;BME280;11867;51.198;11.966;2022-09-28T01:40:05;98609.50;;;9.11;91.91
32733;BME280;11867;51.198;11.966;2022-09-28T01:45:14;98602.84;;;8.94;93.15
32733;BME280;11867;51.198;11.966;2022-09-28T01:50:21;98583.38;;;8.69;93.68
32733;BME280;11867;51.198;11.966;2022-09-28T01:55:28;98570.19;;;8.09;97.53
32733;BME280;11867;51.198;11.966;2022-09-28T02:00:34;98573.34;;;7.88;100.00
32733;BME280;11867;51.198;11.966;2022-09-28T02:05:46;98561.75;;;7.60;100.00
32733;BME280;11867;51.198;11.966;2022-09-28T02:10:54;98558.44;;;7.77;97.72
32733;BME280;11867;51.198;11.966;2022-09-28T02:16:04;98555.72;;;8.00;98.14
32733;BME280;11867;51.198;11.966;2022-09-28T02:21:10;98560.13;;;8.09;96.57
32733;BME280;11867;51.198;11.966;2022-09-28T02:26:16;98568.34;;;8.41;94.57
32733;BME280;11867;51.198;11.966;2022-09-28T02:31:24;98558.50;;;8.54;94.53
32733;BME280;11867;51.198;11.966;2022-09-28T02:36:28;98557.75;;;8.62;93.52
32733;BME280;11867;51.198;11.966;2022-09-28T02:41:40;98555.59;;;8.73;92.93
32733;BME280;11867;51.198;11.966;2022-09-28T02:46:53;98563.78;;;8.81;92.28
32733;BME280;11867;51.198;11.966;2022-09-28T02:52:14;98558.06;;;8.83;92.73
32733;BME280;11867;51.198;11.966;2022-09-28T02:57:28;98549.41;;;8.81;92.59
32733;BME280;11867;51.198;11.966;2022-09-28T03:02:39;98531.22;;;8.59;94.12
32733;BME280;11867;51.198;11.966;2022-09-28T03:07:51;98539.06;;;8.60;94.80
32733;BME280;11867;51.198;11.966;2022-09-28T03:12:57;98525.22;;;8.71;92.95
32733;BME280;11867;51.198;11.966;2022-09-28T03:18:02;98527.97;;;8.48;94.81
32733;BME280;11867;51.198;11.966;2022-09-28T03:23:05;98518.72;;;8.49;94.14
32733;BME280;11867;51.198;11.966;2022-09-28T03:28:24;98516.66;;;8.55;94.51
32733;BME280;11867;51.198;11.966;2022-09-28T03:33:29;98508.00;;;8.84;92.70
32733;BME280;11867;51.198;11.966;2022-09-28T03:38:32;98504.81;;;8.82;92.19
32733;BME280;11867;51.198;11.966;2022-09-28T03:43:35;98497.56;;;8.68;93.44
32733;BME280;11867;51.198;11.966;2022-09-28T03:48:39;98487.72;;;8.90;92.62
32733;BME280;11867;51.198;11.966;2022-09-28T03:53:42;98483.00;;;9.13;90.72
32733;BME280;11867;51.198;11.966;2022-09-28T03:58:44;98474.13;;;8.90;92.03
32733;BME280;11867;51.198;11.966;2022-09-28T04:03:52;98463.94;;;9.04;91.92
32733;BME280;11867;51.198;11.966;2022-09-28T04:08:55;98464.75;;;9.05;91.71
32733;BME280;11867;51.198;11.966;2022-09-28T04:13:58;98456.13;;;9.12;91.50
32733;BME280;11867;51.198;11.966;2022-09-28T04:19:01;98446.06;;;9.29;90.67
32733;BME280;11867;51.198;11.966;2022-09-28T04:24:04;98449.59;;;9.56;89.87
32733;BME280;11867;51.198;11.966;2022-09-28T04:29:08;98446.06;;;9.73;89.08
32733;BME280;11867;51.198;11.966;2022-09-28T04:34:22;98430.22;;;9.75;89.79
32733;BME280;11867;51.198;11.966;2022-09-28T04:39:24;98422.88;;;9.58;90.42
32733;BME280;11867;51.198;11.966;2022-09-28T04:44:27;98419.03;;;9.77;89.67
32733;BME280;11867;51.198;11.966;2022-09-28T04:49:31;98413.25;;;9.87;88.92
32733;BME280;11867;51.198;11.966;2022-09-28T04:54:35;98402.53;;;9.90;89.68
32733;BME280;11867;51.198;11.966;2022-09-28T04:59:38;98403.47;;;9.95;89.96
32733;BME280;11867;51.198;11.966;2022-09-28T05:04:42;98405.97;;;10.08;89.77
32733;BME280;11867;51.198;11.966;2022-09-28T05:09:44;98396.03;;;10.21;89.95
32733;BME280;11867;51.198;11.966;2022-09-28T05:14:46;98394.25;;;10.17;90.58
32733;BME280;11867;51.198;11.966;2022-09-28T05:19:50;98386.44;;;10.15;90.58
32733;BME280;11867;51.198;11.966;2022-09-28T05:24:53;98385.78;;;10.18;90.93
32733;BME280;11867;51.198;11.966;2022-09-28T05:29:56;98382.09;;;10.32;89.14
32733;BME280;11867;51.198;11.966;2022-09-28T05:34:59;98373.78;;;10.10;89.55
32733;BME280;11867;51.198;11.966;2022-09-28T05:40:02;98376.97;;;10.30;88.53
32733;BME280;11867;51.198;11.966;2022-09-28T05:45:06;98376.16;;;10.29;89.57
32733;BME280;11867;51.198;11.966;2022-09-28T05:50:10;98369.69;;;10.43;89.34
32733;BME280;11867;51.198;11.966;2022-09-28T05:55:16;98372.78;;;10.62;89.28
32733;BME280;11867;51.198;11.966;2022-09-28T06:00:18;98369.78;;;10.55;90.21
32733;BME280;11867;51.198;11.966;2022-09-28T06:05:23;98372.38;;;9.96;94.49
32733;BME280;11867;51.198;11.966;2022-09-28T06:10:27;98363.28;;;9.92;93.99
32733;BME280;11867;51.198;11.966;2022-09-28T06:15:31;98365.53;;;10.37;93.03
32733;BME280;11867;51.198;11.966;2022-09-28T06:20:36;98364.44;;;10.67;92.42
32733;BME280;11867;51.198;11.966;2022-09-28T06:25:40;98365.97;;;10.47;93.08
32733;BME280;11867;51.198;11.966;2022-09-28T06:30:43;98373.91;;;10.32;94.31
32733;BME280;11867;51.198;11.966;2022-09-28T06:35:47;98363.47;;;10.25;94.92
32733;BME280;11867;51.198;11.966;2022-09-28T06:40:49;98362.56;;;10.29;95.30
32733;BME280;11867;51.198;11.966;2022-09-28T06:45:52;98371.22;;;10.14;96.27
32733;BME280;11867;51.198;11.966;2022-09-28T06:50:56;98372.47;;;10.17;96.82
32733;BME280;11867;51.198;11.966;2022-09-28T06:55:59;98365.91;;;10.65;95.20
32733;BME280;11867;51.198;11.966;2022-09-28T07:01:03;98363.50;;;10.63;94.07
32733;BME280;11867;51.198;11.966;2022-09-28T07:06:10;98372.63;;;10.20;96.05
32733;BME280;11867;51.198;11.966;2022-09-28T07:11:13;98367.84;;;10.08;96.18
32733;BME280;11867;51.198;11.966;2022-09-28T07:16:15;98365.41;;;10.24;97.49
32733;BME280;11867;51.198;11.966;2022-09-28T07:21:24;98356.28;;;9.82;100.00
32733;BME280;11867;51.198;11.966;2022-09-28T07:26:31;98362.00;;;9.89;100.00
32733;BME280;11867;51.198;11.966;2022-09-28T07:31:34;98362.41;;;10.08;99.29
32733;BME280;11867;51.198;11.966;2022-09-28T07:36:38;98363.72;;;10.11;99.59
32733;BME280;11867;51.198;11.966;2022-09-28T07:41:40;98357.69;;;9.79;100.00
32733;BME280;11867;51.198;11.966;2022-09-28T07:46:44;98365.28;;;10.12;99.29
32733;BME280;11867;51.198;11.966;2022-09-28T07:51:48;98367.97;;;9.65;100.00
32733;BME280;11867;51.198;11.966;2022-09-28T07:56:50;98363.41;;;10.04;100.00
32733;BME280;11867;51.198;11.966;2022-09-28T08:01:53;98361.97;;;10.75;96.51
32733;BME280;11867;51.198;11.966;2022-09-28T08:06:57;98358.03;;;10.63;96.44
32733;BME280;11867;51.198;11.966;2022-09-28T08:12:00;98361.19;;;10.95;94.85
32733;BME280;11867;51.198;11.966;2022-09-28T08:17:05;98361.09;;;10.92;95.71
32733;BME280;11867;51.198;11.966;2022-09-28T08:22:09;98361.88;;;10.92;94.12
32733;BME280;11867;51.198;11.966;2022-09-28T08:27:12;98375.47;;;10.71;96.69
32733;BME280;11867;51.198;11.966;2022-09-28T08:32:15;98373.78;;;10.87;96.30
32733;BME280;11867;51.198;11.966;2022-09-28T08:37:24;98380.03;;;10.88;93.21
32733;BME280;11867;51.198;11.966;2022-09-28T08:42:32;98383.91;;;11.29;91.45
32733;BME280;11867;51.198;11.966;2022-09-28T08:47:44;98389.31;;;10.87;94.88
32733;BME280;11867;51.198;11.966;2022-09-28T08:53:19;98389.00;;;11.30;90.95
32733;BME280;11867;51.198;11.966;2022-09-28T08:58:31;98394.47;;;11.09;89.23
32733;BME280;11867;51.198;11.966;2022-09-28T09:03:36;98403.72;;;10.96;90.99
32733;BME280;11867;51.198;11.966;2022-09-28T09:08:48;98405.84;;;10.52;93.28
32733;BME280;11867;51.198;11.966;2022-09-28T09:19:34;98403.78;;;11.08;91.66
32733;BME280;11867;51.198;11.966;2022-09-28T09:24:46;98415.31;;;10.84;90.93
32733;BME280;11867;51.198;11.966;2022-09-28T09:29:59;98412.13;;;10.53;93.34
32733;BME280;11867;51.198;11.966;2022-09-28T09:35:15;98412.03;;;10.23;94.07
32733;BME280;11867;51.198;11.966;2022-09-28T09:40:51;98424.91;;;10.05;93.97
32733;BME280;11867;51.198;11.966;2022-09-28T09:46:09;98413.06;;;10.86;91.46
32733;BME280;11867;51.198;11.966;2022-09-28T09:51:21;98418.63;;;10.69;92.58
32733;BME280;11867;51.198;11.966;2022-09-28T09:56:31;98422.66;;;10.93;90.52
32733;BME280;11867;51.198;11.966;2022-09-28T10:01:37;98432.72;;;11.01;92.62
32733;BME280;11867;51.198;11.966;2022-09-28T10:06:42;98427.56;;;11.29;90.75
32733;BME280;11867;51.198;11.966;2022-09-28T10:11:46;98446.63;;;10.78;92.47
32733;BME280;11867;51.198;11.966;2022-09-28T10:16:52;98435.28;;;11.27;92.24
32733;BME280;11867;51.198;11.966;2022-09-28T10:21:55;98448.25;;;11.30;91.96
32733;BME280;11867;51.198;11.966;2022-09-28T10:27:04;98446.44;;;11.13;90.94
32733;BME280;11867;51.198;11.966;2022-09-28T10:32:17;98448.91;;;11.48;91.28
32733;BME280;11867;51.198;11.966;2022-09-28T10:37:20;98449.69;;;11.27;94.07
32733;BME280;11867;51.198;11.966;2022-09-28T10:42:27;98450.31;;;11.75;93.07
32733;BME280;11867;51.198;11.966;2022-09-28T10:47:32;98463.44;;;12.15;89.75
32733;BME280;11867;51.198;11.966;2022-09-28T10:52:38;98464.59;;;12.97;86.09
32733;BME280;11867;51.198;11.966;2022-09-28T10:57:43;98468.47;;;12.25;91.24
32733;BME280;11867;51.198;11.966;2022-09-28T11:02:45;98468.53;;;12.04;87.43
32733;BME280;11867;51.198;11.966;2022-09-28T11:07:48;98471.50;;;11.78;91.30
32733;BME280;11867;51.198;11.966;2022-09-28T11:12:54;98472.63;;;12.44;86.61
32733;BME280;11867;51.198;11.966;2022-09-28T11:18:17;98476.13;;;12.90;84.53
32733;BME280;11867;51.198;11.966;2022-09-28T11:23:24;98477.47;;;12.71;83.82
32733;BME280;11867;51.198;11.966;2022-09-28T11:28:32;98470.63;;;12.78;83.90
32733;BME280;11867;51.198;11.966;2022-09-28T11:33:36;98485.50;;;12.43;86.54
32733;BME280;11867;51.198;11.966;2022-09-28T11:38:44;98493.69;;;12.43;85.28
32733;BME280;11867;51.198;11.966;2022-09-28T11:44:15;98494.88;;;12.21;86.84
32733;BME280;11867;51.198;11.966;2022-09-28T11:49:27;98513.22;;;11.79;89.35
32733;BME280;11867;51.198;11.966;2022-09-28T11:54:38;98515.28;;;12.03;87.90
32733;BME280;11867;51.198;11.966;2022-09-28T11:59:51;98515.97;;;12.79;85.69
32733;BME280;11867;51.198;11.966;2022-09-28T12:05:03;98507.66;;;14.46;79.73
32733;BME280;11867;51.198;11.966;2022-09-28T12:10:13;98503.84;;;15.81;74.12
32733;BME280;11867;51.198;11.966;2022-09-28T12:15:22;98511.41;;;17.12;72.21
32733;BME280;11867;51.198;11.966;2022-09-28T12:20:29;98503.34;;;22.29;57.56
32733;BME280;11867;51.198;11.966;2022-09-28T12:25:38;98516.72;;;22.45;52.24
32733;BME280;11867;51.198;11.966;2022-09-28T12:30:46;98521.47;;;22.51;54.39
32733;BME280;11867;51.198;11.966;2022-09-28T12:36:01;98518.63;;;26.24;47.25
32733;BME280;11867;51.198;11.966;2022-09-28T12:41:16;98538.00;;;21.70;51.56
32733;BME280;11867;51.198;11.966;2022-09-28T12:46:34;98544.03;;;18.54;60.12
32733;BME280;11867;51.198;11.966;2022-09-28T12:51:46;98550.34;;;18.17;62.15
32733;BME280;11867;51.198;11.966;2022-09-28T12:56:56;98542.41;;;18.87;58.18
32733;BME280;11867;51.198;11.966;2022-09-28T13:02:37;98554.03;;;16.33;62.10
32733;BME280;11867;51.198;11.966;2022-09-28T13:07:47;98551.50;;;19.87;58.20
32733;BME280;11867;51.198;11.966;2022-09-28T13:13:09;98554.34;;;17.93;57.21
32733;BME280;11867;51.198;11.966;2022-09-28T13:18:21;98556.69;;;16.72;61.27
32733;BME280;11867;51.198;11.966;2022-09-28T13:23:29;98558.22;;;18.52;56.88
32733;BME280;11867;51.198;11.966;2022-09-28T13:28:36;98567.63;;;18.14;56.40
32733;BME280;11867;51.198;11.966;2022-09-28T13:33:43;98562.13;;;19.82;55.98
32733;BME280;11867;51.198;11.966;2022-09-28T13:38:47;98570.69;;;16.63;58.84
32733;BME280;11867;51.198;11.966;2022-09-28T13:44:22;98574.53;;;15.65;62.36
32733;BME280;11867;51.198;11.966;2022-09-28T13:49:39;98581.81;;;15.41;62.58
32733;BME280;11867;51.198;11.966;2022-09-28T13:54:52;98581.22;;;15.16;65.02
32733;BME280;11867;51.198;11.966;2022-09-28T14:00:03;98586.22;;;14.66;67.57
32733;BME280;11867;51.198;11.966;2022-09-28T14:10:49;98595.53;;;14.09;69.17
32733;BME280;11867;51.198;11.966;2022-09-28T14:15:52;98594.94;;;14.16;69.77
32733;BME280;11867;51.198;11.966;2022-09-28T14:21:20;98588.25;;;14.69;67.93
32733;BME280;11867;51.198;11.966;2022-09-28T14:26:50;98588.06;;;14.22;68.34
32733;BME280;11867;51.198;11.966;2022-09-28T14:32:03;98595.06;;;14.19;69.45
32733;BME280;11867;51.198;11.966;2022-09-28T14:37:18;98593.47;;;14.18;70.28
32733;BME280;11867;51.198;11.966;2022-09-28T14:48:42;98619.78;;;13.82;70.42
32733;BME280;11867;51.198;11.966;2022-09-28T14:53:48;98631.13;;;13.68;73.21
32733;BME280;11867;51.198;11.966;2022-09-28T14:58:53;98630.66;;;13.66;72.75
32733;BME280;11867;51.198;11.966;2022-09-28T15:04:02;98620.47;;;13.91;72.27
32733;BME280;11867;51.198;11.966;2022-09-28T15:09:26;98628.47;;;13.60;74.06
32733;BME280;11867;51.198;11.966;2022-09-28T15:14:31;98631.66;;;12.91;75.92
32733;BME280;11867;51.198;11.966;2022-09-28T15:19:43;98631.88;;;13.32;72.88
32733;BME280;11867;51.198;11.966;2022-09-28T15:24:54;98633.56;;;13.24;72.50
32733;BME280;11867;51.198;11.966;2022-09-28T15:30:17;98632.50;;;13.17;74.19
32733;BME280;11867;51.198;11.966;2022-09-28T15:35:24;98639.44;;;12.68;75.07
32733;BME280;11867;51.198;11.966;2022-09-28T15:40:30;98646.41;;;12.66;75.73
32733;BME280;11867;51.198;11.966;2022-09-28T15:45:36;98646.53;;;12.48;77.35
32733;BME280;11867;51.198;11.966;2022-09-28T15:50:55;98656.28;;;12.91;76.64
32733;BME280;11867;51.198;11.966;2022-09-28T15:56:01;98668.03;;;12.92;75.42
32733;BME280;11867;51.198;11.966;2022-09-28T16:01:21;98666.69;;;13.31;75.96
32733;BME280;11867;51.198;11.966;2022-09-28T16:06:28;98670.50;;;12.51;76.13
32733;BME280;11867;51.198;11.966;2022-09-28T16:11:35;98663.88;;;12.74;75.72
32733;BME280;11867;51.198;11.966;2022-09-28T16:16:44;98664.53;;;12.70;73.88
32733;BME280;11867;51.198;11.966;2022-09-28T16:21:50;98680.06;;;13.24;72.51
32733;BME280;11867;51.198;11.966;2022-09-28T16:26:55;98675.72;;;12.78;73.11
32733;BME280;11867;51.198;11.966;2022-09-28T16:32:31;98684.00;;;12.90;72.83
32733;BME280;11867;51.198;11.966;2022-09-28T16:37:39;98689.88;;;12.80;72.74
32733;BME280;11867;51.198;11.966;2022-09-28T16:42:43;98700.16;;;12.41;74.98
32733;BME280;11867;51.198;11.966;2022-09-28T16:47:50;98706.00;;;11.71;77.44
32733;BME280;11867;51.198;11.966;2022-09-28T16:53:00;98716.84;;;11.50;80.40
32733;BME280;11867;51.198;11.966;2022-09-28T16:58:21;98719.06;;;11.57;78.90
32733;BME280;11867;51.198;11.966;2022-09-28T17:03:26;98724.19;;;11.02;81.46
32733;BME280;11867;51.198;11.966;2022-09-28T17:08:31;98718.81;;;10.10;88.51
32733;BME280;11867;51.198;11.966;2022-09-28T17:13:35;98722.47;;;9.97;90.17
32733;BME280;11867;51.198;11.966;2022-09-28T17:18:39;98723.69;;;10.30;90.75
32733;BME280;11867;51.198;11.966;2022-09-28T17:23:43;98735.72;;;9.81;94.02
32733;BME280;11867;51.198;11.966;2022-09-28T17:28:46;98740.03;;;9.50;94.56
32733;BME280;11867;51.198;11.966;2022-09-28T17:33:49;98733.81;;;9.50;94.82
32733;BME280;11867;51.198;11.966;2022-09-28T17:38:53;98749.28;;;10.21;91.87
32733;BME280;11867;51.198;11.966;2022-09-28T17:43:57;98757.31;;;10.26;89.73
32733;BME280;11867;51.198;11.966;2022-09-28T17:49:04;98758.19;;;10.44;88.71
32733;BME280;11867;51.198;11.966;2022-09-28T17:54:09;98761.88;;;10.65;87.35
32733;BME280;11867;51.198;11.966;2022-09-28T17:59:15;98773.41;;;10.54;88.14
32733;BME280;11867;51.198;11.966;2022-09-28T18:04:18;98773.28;;;10.10;91.50
32733;BME280;11867;51.198;11.966;2022-09-28T18:09:42;98785.16;;;9.74;91.92
32733;BME280;11867;51.198;11.966;2022-09-28T18:14:45;98787.13;;;8.33;100.00
32733;BME280;11867;51.198;11.966;2022-09-28T18:19:48;98789.94;;;8.00;100.00
32733;BME280;11867;51.198;11.966;2022-09-28T18:24:52;98785.91;;;7.98;100.00
32733;BME280;11867;51.198;11.966;2022-09-28T18:29:55;98789.22;;;8.22;100.00
32733;BME280;11867;51.198;11.966;2022-09-28T18:34:58;98800.28;;;8.12;100.00
32733;BME280;11867;51.198;11.966;2022-09-28T18:40:03;98795.97;;;7.97;100.00
32733;BME280;11867;51.198;11.966;2022-09-28T18:45:08;98808.63;;;8.29;100.00
32733;BME280;11867;51.198;11.966;2022-09-28T18:50:11;98807.31;;;8.68;98.03
32733;BME280;11867;51.198;11.966;2022-09-28T18:55:17;98826.13;;;9.24;94.89
32733;BME280;11867;51.198;11.966;2022-09-28T19:00:20;98821.47;;;8.79;97.16
32733;BME280;11867;51.198;11.966;2022-09-28T19:05:23;98827.50;;;9.13;95.33
32733;BME280;11867;51.198;11.966;2022-09-28T19:10:30;98833.13;;;8.80;96.01
32733;BME280;11867;51.198;11.966;2022-09-28T19:15:32;98829.47;;;9.21;93.69
32733;BME280;11867;51.198;11.966;2022-09-28T19:20:35;98827.59;;;9.30;93.41
32733;BME280;11867;51.198;11.966;2022-09-28T19:25:39;98832.13;;;9.57;91.48
32733;BME280;11867;51.198;11.966;2022-09-28T19:30:42;98821.66;;;9.50;90.20
32733;BME280;11867;51.198;11.966;2022-09-28T19:35:53;98828.28;;;9.36;90.48
32733;BME280;11867;51.198;11.966;2022-09-28T19:40:57;98832.94;;;8.76;92.49
32733;BME280;11867;51.198;11.966;2022-09-28T19:46:02;98841.47;;;8.83;93.85
32733;BME280;11867;51.198;11.966;2022-09-28T19:51:05;98848.44;;;9.12;91.14
32733;BME280;11867;51.198;11.966;2022-09-28T19:56:10;98855.28;;;8.73;93.56
32733;BME280;11867;51.198;11.966;2022-09-28T20:01:13;98851.66;;;8.78;93.01
32733;BME280;11867;51.198;11.966;2022-09-28T20:06:15;98854.78;;;8.71;93.42
32733;BME280;11867;51.198;11.966;2022-09-28T20:11:20;98850.47;;;8.28;95.93
32733;BME280;11867;51.198;11.966;2022-09-28T20:16:22;98863.72;;;7.88;99.24
32733;BME280;11867;51.198;11.966;2022-09-28T20:21:25;98863.16;;;8.33;95.81
32733;BME280;11867;51.198;11.966;2022-09-28T20:26:30;98870.63;;;8.41;95.34
32733;BME280;11867;51.198;11.966;2022-09-28T20:31:37;98863.47;;;7.71;99.87
32733;BME280;11867;51.198;11.966;2022-09-28T20:36:40;98868.41;;;7.83;98.82
32733;BME280;11867;51.198;11.966;2022-09-28T20:41:45;98870.69;;;8.08;97.08
32733;BME280;11867;51.198;11.966;2022-09-28T20:46:50;98873.09;;;7.63;100.00
32733;BME280;11867;51.198;11.966;2022-09-28T20:51:52;98882.81;;;7.13;100.00
32733;BME280;11867;51.198;11.966;2022-09-28T20:56:56;98887.00;;;7.76;100.00
32733;BME280;11867;51.198;11.966;2022-09-28T21:01:59;98891.75;;;7.98;98.83
32733;BME280;11867;51.198;11.966;2022-09-28T21:07:02;98895.72;;;8.19;96.78
32733;BME280;11867;51.198;11.966;2022-09-28T21:12:06;98893.31;;;7.38;100.00
32733;BME280;11867;51.198;11.966;2022-09-28T21:17:09;98896.66;;;7.96;99.88
32733;BME280;11867;51.198;11.966;2022-09-28T21:22:12;98898.50;;;7.35;100.00
32733;BME280;11867;51.198;11.966;2022-09-28T21:27:18;98903.09;;;7.53;100.00
32733;BME280;11867;51.198;11.966;2022-09-28T21:32:21;98915.25;;;7.88;100.00
32733;BME280;11867;51.198;11.966;2022-09-28T21:37:24;98929.47;;;7.99;98.75
32733;BME280;11867;51.198;11.966;2022-09-28T21:42:28;98927.88;;;7.08;100.00
32733;BME280;11867;51.198;11.966;2022-09-28T21:47:31;98928.53;;;7.00;100.00
32733;BME280;11867;51.198;11.966;2022-09-28T21:52:34;98935.16;;;7.13;100.00
32733;BME280;11867;51.198;11.966;2022-09-28T21:57:38;98928.25;;;7.59;100.00
32733;BME280;11867;51.198;11.966;2022-09-28T22:02:40;98928.41;;;8.28;98.98
32733;BME280;11867;51.198;11.966;2022-09-28T22:07:43;98938.91;;;8.90;93.68
32733;BME280;11867;51.198;11.966;2022-09-28T22:12:47;98939.78;;;9.13;92.66
32733;BME280;11867;51.198;11.966;2022-09-28T22:17:50;98943.16;;;9.33;92.22
32733;BME280;11867;51.198;11.966;2022-09-28T22:22:53;98944.59;;;9.53;90.32
32733;BME280;11867;51.198;11.966;2022-09-28T22:27:57;98947.56;;;9.65;90.51
32733;BME280;11867;51.198;11.966;2022-09-28T22:32:59;98948.25;;;9.70;90.90
32733;BME280;11867;51.198;11.966;2022-09-28T22:38:03;98941.53;;;9.68;91.44
32733;BME280;11867;51.198;11.966;2022-09-28T22:43:07;98943.56;;;9.85;89.46
32733;BME280;11867;51.198;11.966;2022-09-28T22:48:09;98944.25;;;9.68;90.91
32733;BME280;11867;51.198;11.966;2022-09-28T22:53:12;98949.44;;;9.78;90.51
32733;BME280;11867;51.198;11.966;2022-09-28T22:58:16;98942.13;;;9.87;89.21
32733;BME280;11867;51.198;11.966;2022-09-28T23:03:19;98945.50;;;9.84;89.99
32733;BME280;11867;51.198;11.966;2022-09-28T23:08:22;98943.81;;;9.75;89.85
32733;BME280;11867;51.198;11.966;2022-09-28T23:13:27;98945.34;;;9.67;89.51
32733;BME280;11867;51.198;11.966;2022-09-28T23:18:32;98946.78;;;9.28;91.23
32733;BME280;11867;51.198;11.966;2022-09-28T23:23:35;98947.28;;;8.80;95.80
32733;BME280;11867;51.198;11.966;2022-09-28T23:28:39;98950.47;;;8.82;94.49
32733;BME280;11867;51.198;11.966;2022-09-28T23:33:42;98939.31;;;8.97;93.20
32733;BME280;11867;51.198;11.966;2022-09-28T23:38:45;98952.44;;;8.35;95.21
32733;BME280;11867;51.198;11.966;2022-09-28T23:43:49;98955.88;;;7.23;100.00
32733;BME280;11867;51.198;11.966;2022-09-28T23:48:52;98955.34;;;6.30;100.00
32733;BME280;11867;51.198;11.966;2022-09-28T23:53:55;98948.66;;;6.22;100.00
32733;BME280;11867;51.198;11.966;2022-09-28T23:58:59;98933.59;;;7.26;100.00
